Flight Track Log - Related Links

Times and Time Zones

All times are in EST time to prevent confusion due to time zone crossing. See the N363NH flight status page for this flight to view local times or setup timezone preferences in your user account.

Time Position Orientation Groundspeed Altitude Reporting Facility
EST Latitude Longitude Course Direction KTS MPH feet Rate Location/Type
Thu 01:41:15 AM 34.2381 -118.4925 347° North 184 212 2,100  Level Los Angeles Center
Thu 01:42:16 AM 34.2978 -118.5086 347° North 226 260 4,100 2,331 Climbing Los Angeles Center
Thu 01:43:16 AM 34.3692 -118.5272 348° North 250 288 6,800 2,876 Climbing Los Angeles Center
Thu 01:44:17 AM 34.4061 -118.6100 298° West 281 323 9,900 2,951 Climbing Los Angeles Center
Thu 01:45:18 AM 34.4492 -118.6869 304° West 286 329 12,800 2,479 Climbing Los Angeles Center
Thu 01:46:18 AM 34.5411 -118.7308 339° North 299 344 14,900 2,083 Climbing Los Angeles Center
Thu 01:47:19 AM 34.6219 -118.7706 338° Northwest 311 358 17,000 1,835 Climbing Los Angeles Center
Thu 01:48:19 AM 34.7078 -118.8011 344° North 323 372 18,600 1,736 Climbing Los Angeles Center
Thu 01:49:20 AM 34.7944 -118.8264 347° North 319 367 20,500 1,736 Climbing Los Angeles Center
Thu 01:50:20 AM 34.8822 -118.8519 347° North 322 371 22,100 1,240 Climbing Los Angeles Center
Thu 01:51:21 AM 34.9619 -118.8747 347° North 329 379 23,000 1,230 Climbing Los Angeles Center
Thu 01:52:22 AM 35.0567 -118.9014 347° North 346 398 24,600 1,488 Climbing Los Angeles Center
Thu 01:53:22 AM 35.1456 -118.9278 346° North 334 384 26,000 1,190 Climbing Los Angeles Center
Thu 01:54:23 AM 35.2381 -118.9544 347° North 340 391 27,000 1,140 Climbing Los Angeles Center
Thu 01:55:23 AM 35.3478 -118.9867 347° North 339 390 28,300 1,140 Climbing Los Angeles Center
Thu 01:56:24 AM 35.4400 -119.0150 346° North 341 392 29,300 992 Climbing Los Angeles Center
Thu 01:57:24 AM 35.5336 -119.0425 347° North 346 398 30,300 1,190 Climbing Los Angeles Center
Thu 01:58:25 AM 35.6261 -119.0706 346° North 344 396 31,700 1,537 Climbing Los Angeles Center
Thu 01:59:25 AM 35.7167 -119.0975 346° North 338 389 33,400 1,686 Climbing Los Angeles Center
Thu 02:00:26 AM 35.8025 -119.1242 346° North 324 373 35,100 1,835 Climbing Los Angeles Center
Thu 02:01:26 AM 35.8833 -119.1478 347° North 305 351 37,100 1,488 Climbing Los Angeles Center
Thu 02:02:27 AM 35.9608 -119.1717 346° North 292 336 38,100 992 Climbing Los Angeles Center
Thu 02:03:27 AM 36.0422 -119.1958 346° North 298 343 39,100 744 Climbing Los Angeles Center
Thu 02:04:28 AM 36.1261 -119.2217 346° North 310 357 39,600 446 Climbing Los Angeles Center
Thu 02:05:28 AM 36.2150 -119.2469 347° North 325 374 40,000 198 Climbing Los Angeles Center
Thu 02:06:29 AM 36.3094 -119.2772 346° North 345 397 40,000 446 Level Los Angeles Center
Thu 02:07:29 AM 36.4078 -119.3078 346° North 360 414 40,900 898 Climbing Los Angeles Center
Thu 02:08:56 AM 36.5378 -119.3447 347° North 351 404 42,200 730 Climbing Oakland Center
Thu 02:09:57 AM 36.6344 -119.3736 347° North 356 410 42,700 347 Climbing Oakland Center
Thu 02:10:57 AM 36.7522 -119.4092 346° North 363 418 42,900 149 Climbing Oakland Center
Thu 02:11:58 AM 36.8533 -119.4428 345° North 373 429 43,000 50 Climbing Oakland Center
Thu 02:12:58 AM 36.9572 -119.4753 346° North 385 443 43,000  Level Oakland Center
Thu 02:13:58 AM 37.0617 -119.5081 346° North 388 447 43,000  Level Oakland Center
Thu 02:14:59 AM 37.1672 -119.5408 346° North 392 451 43,000  Level Oakland Center
Thu 02:15:59 AM 37.2733 -119.5728 347° North 392 451 43,000  Level Oakland Center
Thu 02:16:59 AM 37.3831 -119.6072 346° North 394 453 43,000  Level Oakland Center
Thu 02:18:00 AM 37.4892 -119.6408 346° North 394 453 43,000  Level Oakland Center
Thu 02:19:00 AM 37.5961 -119.6742 346° North 394 453 43,000  Level Oakland Center
Thu 02:20:09 AM 37.7036 -119.7089 346° North 396 456 43,000  Level Oakland Center
Thu 02:21:09 AM 37.8097 -119.7431 346° North 395 455 43,000  Level Oakland Center
Thu 02:22:09 AM 37.9172 -119.7761 346° North 398 458 43,000  Level Oakland Center
Thu 02:23:10 AM 38.0242 -119.8106 346° North 397 457 43,000  Level Oakland Center
Thu 02:24:10 AM 38.1319 -119.8442 346° North 397 457 43,000  Level Oakland Center
Thu 02:25:10 AM 38.2403 -119.8792 346° North 401 461 43,000  Level Oakland Center
Thu 02:26:11 AM 38.3467 -119.9131 346° North 398 458 43,000  Level Oakland Center
Thu 02:27:11 AM 38.4736 -119.9531 346° North 393 452 43,000  Level Oakland Center
Thu 02:28:11 AM 38.5789 -119.9883 345° North 393 452 43,000  Level Oakland Center
Thu 02:29:12 AM 38.6858 -120.0222 346° North 396 456 43,000  Level Oakland Center
Thu 02:30:12 AM 38.7919 -120.0569 346° North 395 455 43,000  Level Oakland Center
Thu 02:31:12 AM 38.8978 -120.0919 346° North 394 453 43,000  Level Oakland Center
Thu 02:32:13 AM 39.0064 -120.1278 346° North 391 450 43,000  Level Oakland Center
Thu 02:33:13 AM 39.1075 -120.1614 346° North 391 450 43,000  Level Oakland Center
Thu 02:34:13 AM 39.2122 -120.1958 346° North 390 449 43,000  Level Oakland Center
Thu 02:35:14 AM 39.3161 -120.2283 346° North 387 445 43,000  Level Oakland Center
Thu 02:36:14 AM 39.4203 -120.2631 346° North 387 445 43,000  Level Oakland Center
Thu 02:37:14 AM 39.5250 -120.2983 345° North 388 447 43,000  Level Oakland Center
Thu 02:38:14 AM 39.6278 -120.3322 346° North 383 441 43,000  Level Oakland Center
Thu 02:39:15 AM 39.7325 -120.3678 345° North 387 445 43,000  Level Oakland Center
Thu 02:40:15 AM 39.8358 -120.4019 346° North 384 442 43,000  Level Oakland Center
Thu 02:41:15 AM 39.9392 -120.4375 345° North 384 442 43,000  Level Oakland Center
Thu 02:42:16 AM 40.0447 -120.4731 346° North 385 443 43,000  Level Oakland Center
Thu 02:43:16 AM 40.1489 -120.5075 346° North 385 443 43,000  Level Oakland Center
Thu 02:44:16 AM 40.2525 -120.5428 345° North 386 444 43,000  Level Oakland Center
Thu 02:45:16 AM 40.3547 -120.5783 345° North 383 441 43,000  Level Oakland Center
Thu 02:46:17 AM 40.4589 -120.6128 346° North 385 443 43,000  Level Oakland Center
Thu 02:47:17 AM 40.5647 -120.6500 345° North 388 447 43,000  Level Oakland Center
Thu 02:48:17 AM 40.6681 -120.6847 346° North 387 445 43,000  Level Oakland Center
Thu 02:49:18 AM 40.7706 -120.7206 345° North 384 442 43,000  Level Oakland Center
Thu 02:50:18 AM 40.8728 -120.7564 345° North 382 440 43,000  Level Oakland Center
Thu 02:51:18 AM 40.9756 -120.7922 345° North 381 438 43,000  Level Oakland Center
Thu 02:52:18 AM 41.0781 -120.8281 345° North 383 441 43,000  Level Oakland Center
Thu 02:53:19 AM 41.1817 -120.8661 345° North 386 444 43,000  Level Oakland Center
Thu 02:54:19 AM 41.2842 -120.9008 346° North 382 440 43,000  Level Oakland Center
Thu 02:55:19 AM 41.3867 -120.9372 345° North 383 441 43,000  Level Oakland Center
Thu 02:56:19 AM 41.4903 -120.9736 345° North 384 442 43,000  Level Oakland Center
Thu 02:57:20 AM 41.5928 -121.0092 345° North 384 442 43,000  Level Oakland Center
Thu 02:58:20 AM 41.6961 -121.0461 345° North 384 442 43,000  Level Oakland Center
Thu 02:59:20 AM 41.7978 -121.0817 345° North 382 440 43,000  Level Oakland Center
Thu 03:00:20 AM 41.9014 -121.1197 345° North 381 438 43,000  Level Oakland Center
Thu 03:01:21 AM 42.0006 -121.1553 345° North 379 436 43,000  Level Oakland Center
Thu 03:02:27 AM 42.1250 -121.1986 346° North 381 438 43,000  Level Seattle Center
Thu 03:03:27 AM 42.2269 -121.2361 345° North 380 437 43,000  Level Seattle Center
Thu 03:04:28 AM 42.3283 -121.2733 345° North 381 438 43,000  Level Seattle Center
Thu 03:05:28 AM 42.4294 -121.3094 345° North 378 435 43,000  Level Seattle Center
Thu 03:06:28 AM 42.5322 -121.3483 344° North 384 442 43,000  Level Seattle Center
Thu 03:07:28 AM 42.6356 -121.3864 345° North 387 445 43,000  Level Seattle Center
Thu 03:08:28 AM 42.7381 -121.4228 345° North 385 443 43,000  Level Seattle Center
Thu 03:09:28 AM 42.8417 -121.4614 345° North 387 445 43,000  Level Seattle Center
Thu 03:10:29 AM 42.9467 -121.5014 344° North 391 450 43,000  Level Seattle Center
Thu 03:11:29 AM 43.0519 -121.5406 345° North 393 452 43,000  Level Seattle Center
Thu 03:12:29 AM 43.1578 -121.5767 346° North 392 451 43,000  Level Seattle Center
Thu 03:13:29 AM 43.2636 -121.6164 345° North 394 453 43,000  Level Seattle Center
Thu 03:14:29 AM 43.3700 -121.6567 345° North 396 456 43,000  Level Seattle Center
Thu 03:15:29 AM 43.4761 -121.7014 343° North 399 459 43,000  Level Seattle Center
Thu 03:16:30 AM 43.5822 -121.7414 345° North 396 456 43,000  Level Seattle Center
Thu 03:17:30 AM 43.6883 -121.7811 345° North 396 456 43,000  Level Seattle Center
Thu 03:18:30 AM 43.7944 -121.8206 345° North 395 455 43,000  Level Seattle Center
Thu 03:19:30 AM 43.9156 -121.8658 345° North 399 459 43,000  Level Seattle Center
Thu 03:20:30 AM 44.0072 -121.8981 346° North 395 455 43,000  Level Seattle Center
Thu 03:21:30 AM 44.1119 -121.9386 344° North 393 452 43,000  Level Seattle Center
Thu 03:22:30 AM 44.2389 -121.9881 344° North 394 453 43,000  Level Seattle Center
Thu 03:23:31 AM 44.3447 -122.0300 344° North 396 456 43,000  Level Seattle Center
Thu 03:24:31 AM 44.4503 -122.0703 345° North 394 453 43,000  Level Seattle Center
Thu 03:25:31 AM 44.5561 -122.1131 344° North 396 456 43,000  Level Seattle Center
Thu 03:26:31 AM 44.6622 -122.1542 345° North 397 457 43,000  Level Seattle Center
Thu 03:27:31 AM 44.7686 -122.1967 344° North 398 458 43,000  Level Seattle Center
Thu 03:28:31 AM 44.8753 -122.2389 344° North 400 460 43,000  Level Seattle Center
Thu 03:29:31 AM 44.9639 -122.2753 344° North 393 452 43,000  Level Seattle Center
Thu 03:30:32 AM 45.0728 -122.3183 344° North 405 466 43,000  Level Seattle Center
Thu 03:31:32 AM 45.1803 -122.3614 344° North 406 467 43,000  Level Seattle Center
Thu 03:32:32 AM 45.2881 -122.4031 345° North 404 465 43,000 -50 Level Seattle Center
Thu 03:33:32 AM 45.3958 -122.4414 346° North 402 463 42,900 -350 Descending Seattle Center
Thu 03:34:32 AM 45.5086 -122.4719 349° North 412 474 42,300 -800 Descending Seattle Center
Thu 03:35:32 AM 45.6244 -122.5042 349° North 424 488 41,300 -1,000 Descending Seattle Center
Thu 03:36:32 AM 45.7425 -122.5386 348° North 432 497 40,300 -1,339 Descending Seattle Center
Thu 03:37:33 AM 45.8589 -122.5686 350° North 428 493 38,600 -2,430 Descending Seattle Center
Thu 03:38:33 AM 45.9953 -122.5675 360° North 410 472 35,400 -2,950 Descending Seattle Center
Thu 03:39:33 AM 46.1131 -122.5667 360° North 423 487 32,700 -2,550 Descending Seattle Center
Thu 03:40:33 AM 46.2233 -122.5703 359° North 441 507 30,300 -2,784 Descending Seattle Center
Thu 03:41:38 AM 46.3800 -122.5711 360° North 468 539 26,900 -2,976 Descending Seattle Center
Thu 03:42:38 AM 46.5089 -122.5725 360° North 466 536 24,100 -2,700 Descending Seattle Center
Thu 03:43:38 AM 46.6333 -122.5753 359° North 450 518 21,500 -2,531 Descending Seattle Center
Thu 03:43:42 AM 46.6364 -122.5761 349° North 449 517 21,400 -2,164 Descending Seattle Center
Thu 03:44:39 AM 46.7561 -122.5753 360° North 443 510 19,300 -2,364 Descending Seattle Center
Thu 03:44:48 AM 46.7767 -122.5781 355° North 439 505 18,800 -1,900 Descending Seattle Center
Thu 03:45:39 AM 46.8697 -122.5792 360° North 413 475 17,400 -1,672 Descending Seattle Center
Thu 03:45:49 AM 46.8833 -122.5789 North 372 428 17,100 -1,800 Descending Seattle Center
Thu 03:46:39 AM 46.9672 -122.5792 360° North 355 409 15,600 -1,770 Descending Seattle Center
Thu 03:46:50 AM 46.9817 -122.5808 355° North 340 391 15,300 -1,800 Descending Seattle Center
Thu 03:47:39 AM 47.0608 -122.5797 North 339 390 13,800 -1,889 Descending Seattle Center
Thu 03:47:44 AM 47.0686 -122.5825 346° North 335 386 13,600 -1,700 Descending Seattle Center
Thu 03:48:39 AM 47.1531 -122.5847 359° North 329 379 12,100 -1,574 Descending Seattle Center
Thu 03:48:45 AM 47.1603 -122.5847 360° North 329 379 12,000 -1,300 Descending Seattle Center
Thu 03:49:39 AM 47.2419 -122.5903 357° North 323 372 10,800 -1,182 Descending Seattle Center
Thu 03:49:51 AM 47.2600 -122.5925 355° North 312 359 10,700 -1,000 Descending Seattle Center
Thu 03:50:39 AM 47.3214 -122.5983 356° North 286 329 9,800 -1,279 Descending Seattle Center
Thu 03:50:52 AM 47.3392 -122.5986 359° North 273 314 9,400 -1,600 Descending Seattle Center
Thu 03:51:39 AM 47.3981 -122.6028 357° North 276 318 8,200 -1,475 Descending Seattle Center
Thu 03:51:53 AM 47.4164 -122.6056 354° North 271 312 7,900 -1,672 Descending Seattle Center
Thu 03:52:40 AM 47.4722 -122.5931 North 268 308 6,500 -1,800 Descending Seattle Center
Thu 03:52:53 AM 47.4886 -122.5922 North 259 298 6,100 -2,000 Descending Seattle Center
Thu 03:53:40 AM 47.5433 -122.5831 North 257 296 4,500 -2,066 Descending Seattle Center
Thu 03:53:54 AM 47.5594 -122.5831 360° North 252 290 4,000 -1,900 Descending Seattle Center
Thu 03:54:40 AM 47.6136 -122.5731 North 256 295 2,600 -1,500 Descending Seattle Center
Thu 03:54:54 AM 47.6297 -122.5708 North 255 293 2,500 -400 Descending Seattle Center
Thu 03:55:40 AM 47.6753 -122.5536 14° North 229 264 2,200 -295 Descending Seattle Center
Thu 03:55:55 AM 47.6817 -122.5392 57° Northeast 203 234 2,200  Level Seattle Center
Thu 03:56:40 AM 47.7056 -122.4789 59° Northeast 216 249 2,200  Level Seattle Center
Thu 03:56:56 AM 47.7056 -122.4569 90° East 224 258 2,200  Level Seattle Center
Thu 03:57:40 AM 47.6733 -122.4128 137° Southeast 214 246 2,200  Level Seattle Center
Thu 03:57:56 AM 47.6594 -122.4067 163° South 207 238 2,200 -200 Level Seattle Center
Thu 03:58:40 AM 47.6200 -122.3797 155° Southeast 207 238 2,000 -492 Descending Seattle Center
Thu 03:58:57 AM 47.6106 -122.3711 148° Southeast 193 222 1,700 -900 Descending Seattle Center
Thu 03:59:40 AM 47.5817 -122.3464 150° Southeast 157 181 1,100 -900 Descending Seattle Center
Thu 03:59:57 AM 47.5717 -122.3400 157° South 130 150 800 -689 Descending Seattle Center
Thu 04:00:41 AM 47.5517 -122.3211 147° Southeast 125 144 400 -346 Descending Seattle Center
Thu 04:01:41 AM 47.5256 -122.2989 150° Southeast 124 143 200 -150 Descending Seattle Center
Thu 04:02:41 AM 47.5289 -122.2925 52° Northeast 92 106 100 -100 Descending Seattle Center

Login

Don't have an account? Register now (free) for customized features, flight alerts, and more!